Time;durP1;ratioP1;P1;durP2;ratioP2;P2;SDS_P1;SDS_P2;PMS_P1;PMS_P2;Temp;Humidity;BMP_temperature;BMP_pressure;BME280_temperature;BME280_humidity;BME280_pressure;Samples;Min_cycle;Max_cycle;Signal;HPM_P1;HPM_P2
2024/01/26 00:01:32;;;;;;;37.15;24.90;;;12.00;87.50;;;;;;5080432;28;20553;-88
2024/01/26 00:03:58;;;;;;;36.42;22.92;;;11.90;87.80;;;;;;5076895;28;20068;-88
2024/01/26 00:06:24;;;;;;;42.17;24.13;;;11.90;87.60;;;;;;5077753;28;20112;-87
2024/01/26 00:08:50;;;;;;;39.10;25.27;;;11.70;87.60;;;;;;5085254;28;20534;-85
2024/01/26 00:11:17;;;;;;;34.55;24.20;;;11.70;87.90;;;;;;5084365;28;20055;-86
2024/01/26 00:13:43;;;;;;;37.50;25.40;;;11.60;87.90;;;;;;5075455;28;20025;-87
2024/01/26 00:16:08;;;;;;;38.15;25.35;;;11.70;88.10;;;;;;5075271;28;20036;-87
2024/01/26 00:18:35;;;;;;;34.28;23.88;;;11.60;88.00;;;;;;5057233;28;20044;-88
2024/01/26 00:21:01;;;;;;;33.83;24.15;;;11.50;88.00;;;;;;5075244;28;20032;-89
2024/01/26 00:23:26;;;;;;;33.88;24.92;;;11.40;88.10;;;;;;5075122;28;20506;-87
2024/01/26 00:25:52;;;;;;;36.58;24.52;;;11.30;89.20;;;;;;5075457;28;20474;-88
2024/01/26 00:28:18;;;;;;;43.72;24.05;;;11.20;88.60;;;;;;5075427;28;20031;-87
2024/01/26 00:30:43;;;;;;;38.10;23.15;;;11.30;88.50;;;;;;5082669;28;20119;-86
2024/01/26 00:33:09;;;;;;;38.10;24.30;;;11.20;88.40;;;;;;5074901;28;20402;-86
2024/01/26 00:35:35;;;;;;;40.60;23.15;;;11.30;88.30;;;;;;5075150;28;20044;-87
2024/01/26 00:38:00;;;;;;;38.22;22.77;;;11.30;89.00;;;;;;5076074;28;20573;-87
2024/01/26 00:40:27;;;;;;;36.72;22.05;;;11.30;88.30;;;;;;5074322;28;20047;-87
2024/01/26 00:42:52;;;;;;;36.80;23.15;;;11.20;88.60;;;;;;5074662;28;20108;-89
2024/01/26 00:45:18;;;;;;;32.70;23.15;;;11.20;88.70;;;;;;5075351;28;20067;-88
2024/01/26 00:47:44;;;;;;;32.22;21.40;;;11.20;88.50;;;;;;5076105;28;20055;-88
2024/01/26 00:50:10;;;;;;;38.30;21.98;;;11.20;88.70;;;;;;5056271;28;20127;-87
2024/01/26 00:52:35;;;;;;;36.67;23.30;;;11.10;88.50;;;;;;5075293;28;20108;-88
2024/01/26 00:55:01;;;;;;;32.25;21.80;;;11.10;88.70;;;;;;5075109;28;20056;-86
2024/01/26 00:57:27;;;;;;;37.00;22.67;;;11.00;89.00;;;;;;5074965;28;20469;-87
2024/01/26 00:59:52;;;;;;;33.28;21.65;;;11.10;89.10;;;;;;5074320;28;20032;-88
2024/01/26 01:02:18;;;;;;;32.67;22.60;;;11.00;88.80;;;;;;5074522;28;20029;-88
2024/01/26 01:04:44;;;;;;;31.08;22.65;;;11.00;88.70;;;;;;5056715;28;20044;-87
2024/01/26 01:07:10;;;;;;;28.88;20.58;;;10.90;89.00;;;;;;5073819;28;20036;-89
2024/01/26 01:09:38;;;;;;;30.85;20.67;;;10.90;89.10;;;;;;5087592;28;20033;-89
2024/01/26 01:12:04;;;;;;;32.00;21.95;;;10.90;89.20;;;;;;5076103;28;20040;-89
2024/01/26 01:14:30;;;;;;;35.35;20.30;;;10.80;89.20;;;;;;5094952;28;20028;-89
2024/01/26 01:16:58;;;;;;;36.33;21.23;;;10.80;89.20;;;;;;5099742;28;20040;-88
2024/01/26 01:19:24;;;;;;;30.88;20.60;;;10.80;89.30;;;;;;5101551;28;20385;-87
2024/01/26 01:21:50;;;;;;;30.92;20.67;;;10.80;89.40;;;;;;5102166;28;20036;-88
2024/01/26 01:24:15;;;;;;;28.67;20.25;;;10.70;89.40;;;;;;5114048;28;20066;-86
2024/01/26 01:26:41;;;;;;;29.00;19.70;;;10.60;89.70;;;;;;5110853;28;20036;-86
2024/01/26 01:29:07;;;;;;;31.45;19.58;;;10.60;89.70;;;;;;5103280;28;20036;-87
2024/01/26 01:31:33;;;;;;;28.73;18.85;;;10.60;89.60;;;;;;5104484;28;20063;-86
2024/01/26 01:33:58;;;;;;;29.90;18.52;;;10.50;89.80;;;;;;5108859;28;20027;-87
2024/01/26 01:36:24;;;;;;;26.65;18.35;;;10.50;89.90;;;;;;5109057;28;20515;-87
2024/01/26 01:38:50;;;;;;;29.05;18.92;;;10.50;90.00;;;;;;5102695;28;20040;-87
2024/01/26 01:41:16;;;;;;;27.27;18.23;;;10.40;89.60;;;;;;5098485;28;20062;-87
2024/01/26 01:43:41;;;;;;;27.38;18.08;;;10.40;89.80;;;;;;5097862;28;20040;-87
2024/01/26 01:46:08;;;;;;;25.58;18.30;;;10.40;90.00;;;;;;5101729;28;20020;-87
2024/01/26 01:48:34;;;;;;;26.67;18.13;;;10.40;90.00;;;;;;5097298;28;20121;-87
2024/01/26 01:50:59;;;;;;;27.33;17.83;;;10.40;90.00;;;;;;5096558;28;20089;-87
2024/01/26 01:53:26;;;;;;;28.65;18.23;;;10.40;90.00;;;;;;5096734;28;20028;-89
2024/01/26 01:55:52;;;;;;;29.48;18.38;;;10.40;89.60;;;;;;5096865;28;20354;-88
2024/01/26 01:58:20;;;;;;;24.40;17.42;;;10.40;89.70;;;;;;5078669;28;20050;-87
2024/01/26 02:00:46;;;;;;;29.83;17.25;;;10.30;89.50;;;;;;5096904;28;20056;-88
2024/01/26 02:03:12;;;;;;;23.30;16.67;;;10.30;89.60;;;;;;5097025;28;20090;-87
2024/01/26 02:05:37;;;;;;;23.80;16.60;;;10.20;89.70;;;;;;5096921;28;20028;-89
2024/01/26 02:08:04;;;;;;;33.38;17.27;;;10.10;89.90;;;;;;5097333;28;20119;-88
2024/01/26 02:10:29;;;;;;;30.30;18.15;;;10.10;90.20;;;;;;5097316;28;20040;-86
2024/01/26 02:12:55;;;;;;;25.27;16.23;;;10.10;90.00;;;;;;5096752;28;20043;-86
2024/01/26 02:15:21;;;;;;;27.83;17.42;;;10.10;89.80;;;;;;5097047;28;20073;-87
2024/01/26 02:17:47;;;;;;;24.50;16.13;;;10.10;89.90;;;;;;5099883;28;20524;-87
2024/01/26 02:20:12;;;;;;;24.33;16.55;;;10.20;90.00;;;;;;5098322;28;20024;-88
2024/01/26 02:22:38;;;;;;;22.55;16.63;;;10.20;90.00;;;;;;5096769;28;20044;-87
2024/01/26 02:25:05;;;;;;;28.60;16.10;;;10.20;90.00;;;;;;5096402;28;20029;-88
2024/01/26 02:27:33;;;;;;;23.00;16.23;;;10.10;89.80;;;;;;5096121;28;20121;-86
2024/01/26 02:29:59;;;;;;;23.65;15.30;;;10.10;89.80;;;;;;5097283;28;20032;-88
2024/01/26 02:32:24;;;;;;;28.27;15.85;;;10.00;89.90;;;;;;5101476;28;20063;-88
2024/01/26 02:34:50;;;;;;;28.02;16.50;;;10.00;90.00;;;;;;5100349;28;20051;-87
2024/01/26 02:37:16;;;;;;;23.40;15.77;;;9.90;90.40;;;;;;5098220;28;20040;-88
2024/01/26 02:39:41;;;;;;;25.08;15.18;;;9.90;90.50;;;;;;5100399;28;20035;-87
2024/01/26 02:42:07;;;;;;;24.98;16.73;;;9.90;90.50;;;;;;5103717;28;20035;-87
2024/01/26 02:44:33;;;;;;;25.77;15.65;;;9.80;90.50;;;;;;5098537;28;20032;-86
2024/01/26 02:46:59;;;;;;;24.05;16.67;;;9.80;90.60;;;;;;5096740;28;20366;-87
2024/01/26 02:49:25;;;;;;;22.52;15.63;;;9.80;90.50;;;;;;5096556;28;20040;-88
2024/01/26 02:51:51;;;;;;;27.60;16.95;;;9.80;90.70;;;;;;5096420;28;20119;-86
2024/01/26 02:54:17;;;;;;;26.33;16.67;;;9.80;90.60;;;;;;5096279;28;20071;-87
2024/01/26 02:56:42;;;;;;;23.38;15.90;;;9.70;90.50;;;;;;5095639;28;20126;-87
2024/01/26 02:59:08;;;;;;;29.92;16.30;;;9.70;90.60;;;;;;5096198;28;20035;-90
2024/01/26 03:01:34;;;;;;;19.58;14.88;;;9.70;90.50;;;;;;5098238;28;20036;-86
2024/01/26 03:03:59;;;;;;;23.30;15.45;;;9.70;90.50;;;;;;5105530;28;20055;-85
2024/01/26 03:06:25;;;;;;;25.33;16.25;;;9.60;90.50;;;;;;5110824;28;20040;-86
2024/01/26 03:08:51;;;;;;;22.00;15.45;;;9.60;90.50;;;;;;5111130;28;20059;-85
2024/01/26 03:11:17;;;;;;;23.63;15.70;;;9.60;90.60;;;;;;5104682;28;20070;-86
2024/01/26 03:13:42;;;;;;;26.38;15.90;;;9.60;90.60;;;;;;5115037;28;20032;-86
2024/01/26 03:16:09;;;;;;;22.58;16.02;;;9.60;90.60;;;;;;5115132;28;20042;-86
2024/01/26 03:18:35;;;;;;;22.88;15.07;;;9.60;90.50;;;;;;5097854;28;20024;-87
2024/01/26 03:21:01;;;;;;;26.40;16.27;;;9.60;90.60;;;;;;5097581;28;20115;-87
2024/01/26 03:23:27;;;;;;;26.33;15.75;;;9.60;90.60;;;;;;5096284;28;20047;-86
2024/01/26 03:25:53;;;;;;;27.45;16.73;;;9.50;90.60;;;;;;5095524;28;20032;-87
2024/01/26 03:28:19;;;;;;;23.60;15.10;;;9.40;90.70;;;;;;5095199;28;20032;-87
2024/01/26 03:30:45;;;;;;;27.05;16.23;;;9.40;90.70;;;;;;5095324;28;20080;-87
2024/01/26 03:33:10;;;;;;;27.02;16.65;;;9.40;90.80;;;;;;5096647;28;20032;-87
2024/01/26 03:35:36;;;;;;;28.27;15.75;;;9.40;90.70;;;;;;5096514;28;20035;-86
2024/01/26 03:38:02;;;;;;;24.20;15.57;;;9.40;90.90;;;;;;5096423;28;20165;-86
2024/01/26 03:40:28;;;;;;;24.17;16.17;;;9.30;90.80;;;;;;5094881;28;20032;-87
2024/01/26 03:42:54;;;;;;;30.38;16.40;;;9.30;90.80;;;;;;5094702;28;20032;-88
2024/01/26 03:45:20;;;;;;;24.17;16.05;;;9.30;90.80;;;;;;5095645;28;20025;-86
2024/01/26 03:47:45;;;;;;;22.10;15.52;;;9.20;90.80;;;;;;5077578;28;20036;-87
2024/01/26 03:50:11;;;;;;;21.15;15.07;;;9.20;90.90;;;;;;5094898;28;20032;-87
2024/01/26 03:52:37;;;;;;;21.95;15.85;;;9.20;91.00;;;;;;5096445;28;20494;-87
2024/01/26 03:55:06;;;;;;;25.70;15.82;;;9.20;90.90;;;;;;5095960;28;20031;-88
2024/01/26 03:57:33;;;;;;;28.70;16.58;;;9.20;91.30;;;;;;5094550;28;20051;-87
2024/01/26 03:59:59;;;;;;;24.52;16.42;;;9.20;90.90;;;;;;5094373;28;20028;-84
2024/01/26 04:02:25;;;;;;;23.20;15.55;;;9.20;91.00;;;;;;5094219;28;20039;-87
2024/01/26 04:04:51;;;;;;;23.77;15.48;;;9.20;91.00;;;;;;5094642;28;20111;-87
2024/01/26 04:07:17;;;;;;;25.50;15.52;;;9.20;91.00;;;;;;5075948;28;20039;-87
2024/01/26 04:09:43;;;;;;;24.33;15.07;;;9.20;91.10;;;;;;5094381;28;20401;-88
2024/01/26 04:12:08;;;;;;;24.25;15.75;;;9.20;91.10;;;;;;5095399;28;20077;-87
2024/01/26 04:14:34;;;;;;;23.98;15.10;;;9.20;91.00;;;;;;5094667;28;20038;-87
2024/01/26 04:17:00;;;;;;;23.23;15.63;;;9.30;91.10;;;;;;5094861;28;20051;-87
2024/01/26 04:19:25;;;;;;;28.33;15.75;;;9.30;91.10;;;;;;5094947;28;20031;-89
2024/01/26 04:21:52;;;;;;;22.38;15.20;;;9.30;91.10;;;;;;5093900;28;20299;-86
2024/01/26 04:24:18;;;;;;;27.85;15.27;;;9.30;91.10;;;;;;5096701;28;20109;-85
2024/01/26 04:26:43;;;;;;;19.88;14.20;;;9.30;91.00;;;;;;5100763;28;20517;-87
2024/01/26 04:29:09;;;;;;;24.85;15.20;;;9.40;91.00;;;;;;5093893;28;20064;-86
2024/01/26 04:31:44;;;;;;;24.48;15.43;;;9.50;91.00;;;;;;5094232;28;20039;-87
2024/01/26 04:34:10;;;;;;;24.17;14.52;;;9.50;91.40;;;;;;5095174;28;20501;-86
2024/01/26 04:36:36;;;;;;;21.38;15.18;;;9.50;91.00;;;;;;5106242;28;20040;-86
2024/01/26 04:39:02;;;;;;;22.25;15.40;;;9.60;91.00;;;;;;5098274;28;20439;-87
2024/01/26 04:41:28;;;;;;;25.40;14.40;;;9.60;90.90;;;;;;5094019;28;20493;-87
2024/01/26 04:43:55;;;;;;;21.42;15.98;;;9.70;90.90;;;;;;5075180;28;20032;-87
2024/01/26 04:46:21;;;;;;;22.40;14.93;;;9.70;90.90;;;;;;5093714;28;20111;-87
2024/01/26 04:48:46;;;;;;;22.65;14.73;;;9.80;90.90;;;;;;5093235;28;20570;-88
2024/01/26 04:51:12;;;;;;;19.30;14.68;;;9.70;90.70;;;;;;5093445;28;20107;-86
2024/01/26 04:53:38;;;;;;;25.48;14.75;;;9.70;90.90;;;;;;5093954;28;20089;-87
2024/01/26 04:56:03;;;;;;;20.88;14.32;;;9.70;90.80;;;;;;5098004;28;20036;-87
2024/01/26 04:58:29;;;;;;;22.27;15.07;;;9.80;90.90;;;;;;5084316;28;20037;-87
2024/01/26 05:00:55;;;;;;;23.73;16.15;;;9.80;90.60;;;;;;5102506;28;20036;-88
2024/01/26 05:03:21;;;;;;;22.88;15.20;;;9.80;90.70;;;;;;5107314;28;20027;-87
2024/01/26 05:05:46;;;;;;;25.02;15.30;;;9.80;90.70;;;;;;5114398;28;20032;-86
2024/01/26 05:08:12;;;;;;;27.30;16.45;;;9.90;90.60;;;;;;5110818;28;20032;-87
2024/01/26 05:10:38;;;;;;;25.45;15.82;;;9.90;90.60;;;;;;5102926;28;20094;-86
2024/01/26 05:13:04;;;;;;;23.92;16.00;;;9.90;90.60;;;;;;5098432;28;20039;-86
2024/01/26 05:15:29;;;;;;;22.08;14.75;;;9.90;90.70;;;;;;5099366;28;20064;-88
2024/01/26 05:17:55;;;;;;;19.73;15.13;;;9.90;90.70;;;;;;5096346;28;20047;-87
2024/01/26 05:20:22;;;;;;;24.10;15.88;;;9.90;90.70;;;;;;5094601;28;20043;-86
2024/01/26 05:22:48;;;;;;;27.02;17.73;;;9.90;90.60;;;;;;5076487;28;20435;-86
2024/01/26 05:25:13;;;;;;;25.23;17.73;;;9.90;90.70;;;;;;5094810;28;20107;-87
2024/01/26 05:27:41;;;;;;;24.77;15.88;;;9.90;90.60;;;;;;5076011;28;20062;-89
2024/01/26 05:30:07;;;;;;;26.38;15.43;;;9.90;90.60;;;;;;5094756;28;20031;-88
2024/01/26 05:32:33;;;;;;;23.63;16.42;;;9.90;91.10;;;;;;5095993;28;20055;-87
2024/01/26 05:34:58;;;;;;;23.45;15.63;;;9.90;90.60;;;;;;5095295;28;20389;-87
2024/01/26 05:37:24;;;;;;;27.98;16.20;;;9.90;90.50;;;;;;5094549;28;20060;-87
2024/01/26 05:39:50;;;;;;;23.35;15.52;;;9.90;90.50;;;;;;5094111;28;20068;-88
2024/01/26 05:42:15;;;;;;;27.63;16.35;;;9.90;90.50;;;;;;5094080;28;20032;-87
2024/01/26 05:44:41;;;;;;;23.40;16.33;;;9.90;90.60;;;;;;5082268;28;20099;-87
2024/01/26 05:47:07;;;;;;;21.50;16.80;;;9.90;90.50;;;;;;5095338;28;20039;-89
2024/01/26 05:49:33;;;;;;;24.73;16.02;;;9.90;90.50;;;;;;5094108;28;20032;-87
2024/01/26 05:51:59;;;;;;;23.38;17.25;;;10.00;90.10;;;;;;5094273;28;20062;-89
2024/01/26 05:54:25;;;;;;;26.80;17.88;;;10.00;90.00;;;;;;5094393;28;20050;-88
2024/01/26 05:56:51;;;;;;;23.17;16.45;;;10.10;90.00;;;;;;5095756;28;20044;-88
2024/01/26 05:59:16;;;;;;;24.25;15.95;;;9.90;90.30;;;;;;5094641;28;20028;-88
2024/01/26 06:01:42;;;;;;;22.70;16.15;;;9.90;90.50;;;;;;5094700;28;20067;-88
2024/01/26 06:04:08;;;;;;;26.02;16.38;;;9.90;90.40;;;;;;5106659;28;20061;-86
2024/01/26 06:06:33;;;;;;;22.90;15.45;;;9.80;90.50;;;;;;5105360;28;20051;-86
2024/01/26 06:08:59;;;;;;;24.67;15.18;;;9.80;90.50;;;;;;5098507;28;20032;-88
2024/01/26 06:11:25;;;;;;;23.88;16.02;;;9.90;90.60;;;;;;5097731;28;20055;-87
2024/01/26 06:13:51;;;;;;;31.52;15.45;;;9.90;90.50;;;;;;5098152;28;20129;-88
2024/01/26 06:16:17;;;;;;;26.58;16.90;;;9.90;90.40;;;;;;5100516;28;20036;-87
2024/01/26 06:18:45;;;;;;;26.17;16.83;;;10.00;90.00;;;;;;5096872;28;20409;-88
2024/01/26 06:21:11;;;;;;;24.00;16.38;;;10.00;90.10;;;;;;5098068;28;20056;-85
2024/01/26 06:23:38;;;;;;;27.80;16.45;;;10.00;90.00;;;;;;5078307;28;20078;-80
2024/01/26 06:26:04;;;;;;;24.60;16.58;;;9.90;90.30;;;;;;5077500;28;20055;-79
2024/01/26 06:28:29;;;;;;;27.25;16.48;;;10.00;89.90;;;;;;5095644;28;20032;-83
2024/01/26 06:30:55;;;;;;;24.65;16.65;;;10.00;89.90;;;;;;5095426;28;20036;-84
2024/01/26 06:33:21;;;;;;;31.98;17.70;;;10.00;89.80;;;;;;5095128;28;20039;-83
2024/01/26 06:35:46;;;;;;;29.23;17.33;;;10.10;89.80;;;;;;5095546;28;20032;-82
2024/01/26 06:38:12;;;;;;;23.80;16.40;;;10.00;89.60;;;;;;5077011;28;20063;-84
2024/01/26 06:40:39;;;;;;;24.75;15.95;;;10.00;89.80;;;;;;5100747;28;20498;-81
2024/01/26 06:43:07;;;;;;;25.40;16.27;;;10.00;89.70;;;;;;5112096;28;20028;-82
2024/01/26 06:45:33;;;;;;;30.45;16.50;;;9.90;90.20;;;;;;5096273;28;20027;-82
2024/01/26 06:47:59;;;;;;;27.10;15.63;;;9.90;90.20;;;;;;5096870;28;20032;-82
2024/01/26 06:50:25;;;;;;;24.05;16.02;;;9.90;90.20;;;;;;5099778;28;20450;-81
2024/01/26 06:52:51;;;;;;;24.20;15.73;;;9.90;90.30;;;;;;5095325;28;20115;-77
2024/01/26 06:55:16;;;;;;;24.90;14.65;;;9.80;90.30;;;;;;5095208;28;20060;-78
2024/01/26 06:57:42;;;;;;;25.73;15.43;;;9.90;90.50;;;;;;5095295;28;20051;-82
2024/01/26 07:00:09;;;;;;;26.88;16.27;;;9.80;90.40;;;;;;5095362;28;20089;-79
2024/01/26 07:02:34;;;;;;;23.05;15.82;;;9.80;90.70;;;;;;5096292;28;20393;-83
2024/01/26 07:05:00;;;;;;;24.52;16.77;;;9.80;90.30;;;;;;5094822;28;20024;-79
2024/01/26 07:07:26;;;;;;;29.48;18.00;;;9.90;90.50;;;;;;5076331;28;20039;-79
2024/01/26 07:09:52;;;;;;;31.02;16.98;;;9.90;90.50;;;;;;5094921;28;20504;-79
2024/01/26 07:12:17;;;;;;;28.15;16.98;;;10.00;90.00;;;;;;5094112;28;20036;-78
2024/01/26 07:14:43;;;;;;;27.35;17.90;;;10.10;90.00;;;;;;5094206;28;20028;-78
2024/01/26 07:17:09;;;;;;;25.60;16.77;;;10.20;89.60;;;;;;5090823;28;20131;-79
2024/01/26 07:19:34;;;;;;;35.03;16.20;;;10.50;90.00;;;;;;5066846;28;20119;-79
2024/01/26 07:22:01;;;;;;;29.90;17.02;;;11.30;88.70;;;;;;5093897;28;20040;-78
2024/01/26 07:24:26;;;;;;;22.33;15.50;;;12.10;86.70;;;;;;5075799;28;20397;-79
2024/01/26 07:26:53;;;;;;;24.05;15.18;;;12.30;85.50;;;;;;5075189;28;20063;-73
2024/01/26 07:29:18;;;;;;;25.05;15.90;;;12.60;85.00;;;;;;5091630;28;20021;-77
2024/01/26 07:31:46;;;;;;;22.15;15.25;;;12.30;84.50;;;;;;5088589;28;20032;-79
2024/01/26 07:34:12;;;;;;;28.23;14.18;;;12.10;85.00;;;;;;5093964;28;20107;-80
2024/01/26 07:36:38;;;;;;;26.17;15.60;;;11.80;85.60;;;;;;5090638;28;20037;-78
2024/01/26 07:39:07;;;;;;;30.23;15.55;;;11.60;86.10;;;;;;5074402;28;20121;-77
2024/01/26 07:41:34;;;;;;;26.30;15.07;;;11.40;86.30;;;;;;5092874;28;20054;-78
2024/01/26 07:44:00;;;;;;;23.60;13.90;;;11.70;86.80;;;;;;5094004;28;20028;-80
2024/01/26 07:46:26;;;;;;;23.42;14.63;;;12.10;85.40;;;;;;5093178;28;20028;-80
2024/01/26 07:48:51;;;;;;;27.17;14.13;;;11.80;85.10;;;;;;5074675;28;20036;-80
2024/01/26 07:51:17;;;;;;;28.55;15.45;;;11.70;85.30;;;;;;5074322;28;20119;-80
2024/01/26 07:53:43;;;;;;;24.77;14.48;;;11.60;85.70;;;;;;5093928;28;20055;-80
2024/01/26 07:56:09;;;;;;;26.90;14.80;;;11.50;85.50;;;;;;5075627;28;20397;-79
2024/01/26 07:58:35;;;;;;;21.38;14.52;;;11.50;85.80;;;;;;5093026;28;20028;-79
2024/01/26 08:01:00;;;;;;;21.67;14.43;;;11.40;85.60;;;;;;5093939;28;20035;-80
2024/01/26 08:03:26;;;;;;;22.73;14.80;;;11.30;85.90;;;;;;5095339;28;20032;-82
2024/01/26 08:05:52;;;;;;;35.17;16.30;;;11.30;86.20;;;;;;5094155;28;20032;-84
2024/01/26 08:08:18;;;;;;;25.38;15.68;;;11.30;85.90;;;;;;5075718;28;20501;-80
2024/01/26 08:10:43;;;;;;;24.90;14.77;;;11.30;85.80;;;;;;5075000;28;20044;-84
2024/01/26 08:13:10;;;;;;;26.88;16.02;;;11.30;86.00;;;;;;5075228;28;20452;-81
2024/01/26 08:15:35;;;;;;;22.17;15.95;;;11.40;85.90;;;;;;5093345;28;20042;-80
2024/01/26 08:18:02;;;;;;;26.02;15.45;;;11.50;85.50;;;;;;5071718;28;20131;-78
2024/01/26 08:20:28;;;;;;;31.52;17.42;;;11.60;85.50;;;;;;5075238;28;20032;-82
2024/01/26 08:22:56;;;;;;;29.63;19.05;;;11.70;85.30;;;;;;5083535;28;20038;-81
2024/01/26 08:25:21;;;;;;;33.25;21.27;;;11.70;85.10;;;;;;5093093;28;20036;-82
2024/01/26 08:27:47;;;;;;;32.42;22.42;;;11.70;84.90;;;;;;5077945;28;20081;-81
2024/01/26 08:30:13;;;;;;;31.48;20.20;;;11.70;84.80;;;;;;5075371;28;20032;-80
2024/01/26 08:32:39;;;;;;;29.42;19.80;;;11.70;84.80;;;;;;5092292;28;20032;-80
2024/01/26 08:35:09;;;;;;;30.70;18.05;;;11.70;84.80;;;;;;5070317;28;20036;-80
2024/01/26 08:37:35;;;;;;;28.27;19.05;;;11.70;84.70;;;;;;5071059;28;20517;-79
2024/01/26 08:40:01;;;;;;;26.92;18.70;;;11.80;84.90;;;;;;5071532;28;20029;-80
2024/01/26 08:42:26;;;;;;;33.80;19.75;;;11.80;84.80;;;;;;5071365;28;20410;-80
2024/01/26 08:44:52;;;;;;;34.53;20.48;;;12.00;85.20;;;;;;5074387;28;20088;-79
2024/01/26 08:47:18;;;;;;;31.25;19.88;;;12.10;84.80;;;;;;5073076;28;20047;-81
2024/01/26 08:49:44;;;;;;;28.38;18.45;;;12.20;84.90;;;;;;5092615;28;20047;-79
2024/01/26 08:52:10;;;;;;;28.42;19.08;;;12.20;84.40;;;;;;5092953;28;20381;-78
2024/01/26 08:54:35;;;;;;;28.67;18.80;;;12.20;84.40;;;;;;5093516;28;20035;-82
2024/01/26 08:57:01;;;;;;;28.48;17.70;;;12.10;84.50;;;;;;5092882;28;20124;-78
2024/01/26 08:59:28;;;;;;;27.95;18.20;;;12.20;84.60;;;;;;5092906;28;20035;-80
2024/01/26 09:01:54;;;;;;;27.10;17.88;;;12.20;84.60;;;;;;5074909;28;20468;-80
2024/01/26 09:04:20;;;;;;;27.88;16.40;;;12.20;84.50;;;;;;5073356;28;20032;-77
2024/01/26 09:06:46;;;;;;;27.23;17.20;;;12.30;84.00;;;;;;5081199;28;20056;-81
2024/01/26 09:09:12;;;;;;;27.30;17.83;;;12.40;84.20;;;;;;5072785;28;20041;-80
2024/01/26 09:11:37;;;;;;;33.67;17.10;;;12.50;84.10;;;;;;5075065;28;20048;-83
2024/01/26 09:14:03;;;;;;;27.02;17.15;;;12.60;83.50;;;;;;5073061;28;20036;-82
2024/01/26 09:16:29;;;;;;;32.95;17.27;;;12.70;83.40;;;;;;5073004;28;20167;-83
2024/01/26 09:18:54;;;;;;;27.63;17.15;;;12.70;83.50;;;;;;5072914;28;20037;-84
2024/01/26 09:21:20;;;;;;;27.55;17.10;;;12.70;83.20;;;;;;5070599;28;20040;-83
2024/01/26 09:23:46;;;;;;;26.27;17.70;;;12.70;83.30;;;;;;5072118;28;20100;-80
2024/01/26 09:26:11;;;;;;;22.13;16.35;;;12.90;83.40;;;;;;5068219;28;20535;-78
2024/01/26 09:28:37;;;;;;;28.67;16.67;;;13.00;83.20;;;;;;5062922;28;20037;-79
2024/01/26 09:31:04;;;;;;;29.75;17.60;;;13.10;82.80;;;;;;5087090;28;20047;-80
2024/01/26 09:33:30;;;;;;;25.65;16.60;;;13.10;82.90;;;;;;5091153;28;20111;-79
2024/01/26 09:35:56;;;;;;;31.50;17.58;;;13.00;82.90;;;;;;5092350;28;20103;-80
2024/01/26 09:38:23;;;;;;;23.83;16.52;;;13.00;83.00;;;;;;5095596;28;20051;-82
2024/01/26 09:40:48;;;;;;;24.73;15.85;;;13.10;83.20;;;;;;5097463;28;20038;-81
2024/01/26 09:43:15;;;;;;;30.65;17.10;;;13.10;83.00;;;;;;5096953;28;20095;-81
2024/01/26 09:45:41;;;;;;;23.00;15.93;;;13.20;82.90;;;;;;5096015;28;21931;-81
2024/01/26 09:48:09;;;;;;;23.90;15.40;;;13.30;82.80;;;;;;5075967;28;20401;-80
2024/01/26 09:50:36;;;;;;;32.10;18.40;;;13.40;82.60;;;;;;5095958;28;20553;-80
2024/01/26 09:53:05;;;;;;;47.05;32.92;;;13.50;82.40;;;;;;5078659;28;20060;-80
2024/01/26 09:55:34;;;;;;;27.75;16.65;;;13.60;82.30;;;;;;5098007;28;20379;-80
2024/01/26 09:57:59;;;;;;;24.83;16.02;;;13.70;82.10;;;;;;5097200;28;20085;-80
2024/01/26 10:00:26;;;;;;;26.55;16.20;;;13.90;82.10;;;;;;5095993;28;20107;-73
2024/01/26 10:02:52;;;;;;;27.15;15.10;;;14.00;81.70;;;;;;5077607;28;20513;-80
2024/01/26 10:05:18;;;;;;;26.70;15.35;;;14.20;81.20;;;;;;5077542;28;20036;-80
2024/01/26 10:07:45;;;;;;;28.10;15.45;;;14.30;81.00;;;;;;5092621;28;20039;-83
2024/01/26 10:10:11;;;;;;;22.70;14.45;;;14.40;80.80;;;;;;5096733;28;20181;-84
2024/01/26 10:12:38;;;;;;;19.20;13.82;;;14.40;80.60;;;;;;5097152;28;20032;-82
2024/01/26 10:15:08;;;;;;;22.05;14.55;;;14.50;80.70;;;;;;5088932;28;20493;-82
2024/01/26 10:17:34;;;;;;;24.05;14.13;;;14.50;80.70;;;;;;5067428;28;20040;-83
2024/01/26 10:20:13;;;;;;;24.15;15.18;;;14.60;80.30;;;;;;5076229;28;20115;-82
2024/01/26 10:22:39;;;;;;;23.42;14.45;;;14.60;80.30;;;;;;5095402;28;20050;-81
2024/01/26 10:25:05;;;;;;;27.77;14.88;;;14.80;80.30;;;;;;5076654;28;20024;-80
2024/01/26 10:27:32;;;;;;;24.85;14.07;;;14.80;80.20;;;;;;5096251;28;20042;-79
2024/01/26 10:29:58;;;;;;;27.50;15.65;;;14.80;80.20;;;;;;5095606;28;20024;-79
2024/01/26 10:32:29;;;;;;;26.17;14.95;;;14.90;80.30;;;;;;5095165;28;20036;-79
2024/01/26 10:35:03;;;;;;;27.17;15.23;;;15.00;80.00;;;;;;5077547;28;20072;-81
2024/01/26 10:37:29;;;;;;;;;;;15.10;80.50;;;;;;5097576;28;20048;-80
2024/01/26 10:39:57;;;;;;;26.45;17.60;;;15.20;79.30;;;;;;5095307;28;19904;-81
2024/01/26 10:42:24;;;;;;;24.73;17.45;;;15.30;79.50;;;;;;5095089;28;20032;-77
2024/01/26 10:44:51;;;;;;;28.38;17.98;;;15.40;79.30;;;;;;5095406;28;20111;-82
2024/01/26 10:47:18;;;;;;;27.38;17.95;;;15.40;79.20;;;;;;5094296;28;20039;-81
2024/01/26 10:49:49;;;;;;;26.38;18.20;;;15.30;79.10;;;;;;5094870;28;20508;-78
2024/01/26 10:52:19;;;;;;;27.63;18.73;;;15.30;79.20;;;;;;5094972;28;20032;-76
2024/01/26 10:54:52;;;;;;;30.23;19.30;;;15.30;79.30;;;;;;5094229;28;20501;-83
2024/01/26 10:57:22;;;;;;;28.38;18.92;;;15.40;79.70;;;;;;5076715;28;20061;-78
2024/01/26 10:59:48;;;;;;;33.83;19.42;;;15.40;79.20;;;;;;5094866;28;20032;-78
2024/01/26 11:02:15;;;;;;;32.42;18.92;;;15.50;79.20;;;;;;5094235;28;20068;-76
2024/01/26 11:04:43;;;;;;;32.53;19.23;;;15.60;79.00;;;;;;5094770;28;20028;-74
2024/01/26 11:07:09;;;;;;;29.95;19.60;;;15.60;78.90;;;;;;5094306;28;20036;-76
2024/01/26 11:09:38;;;;;;;33.67;20.35;;;15.70;79.00;;;;;;5094128;28;20040;-76
2024/01/26 11:12:20;;;;;;;33.95;18.52;;;15.70;78.70;;;;;;5093896;28;20044;-75
2024/01/26 11:14:47;;;;;;;28.38;18.65;;;15.80;79.20;;;;;;5093844;28;20104;-74
2024/01/26 11:17:13;;;;;;;30.27;18.42;;;15.80;78.50;;;;;;5093353;28;20508;-76
2024/01/26 11:19:48;;;;;;;26.75;17.65;;;15.80;78.60;;;;;;5093896;28;20032;-75
2024/01/26 11:22:15;;;;;;;31.90;18.08;;;15.90;78.60;;;;;;5094087;28;20115;-74
2024/01/26 11:24:43;;;;;;;26.55;17.70;;;15.90;78.30;;;;;;5094387;28;20521;-79
2024/01/26 11:27:10;;;;;;;26.05;17.45;;;15.90;78.40;;;;;;5071777;28;20057;-80
2024/01/26 11:29:37;;;;;;;27.23;16.77;;;16.00;78.10;;;;;;5091350;28;20032;-78
2024/01/26 11:32:19;;;;;;;26.05;16.95;;;16.00;78.10;;;;;;5093715;28;20036;-80
2024/01/26 11:34:58;;;;;;;28.15;17.85;;;16.00;78.10;;;;;;5095253;28;20043;-78
2024/01/26 11:37:27;;;;;;;30.15;16.55;;;16.10;78.00;;;;;;5094354;28;20512;-79
2024/01/26 11:39:55;;;;;;;25.55;16.00;;;16.20;77.70;;;;;;5094227;28;20024;-79
2024/01/26 11:42:21;;;;;;;27.77;16.70;;;16.30;77.80;;;;;;5094209;28;20111;-80
2024/01/26 11:45:08;;;;;;;26.10;16.23;;;16.30;77.70;;;;;;5094114;28;20086;-76
2024/01/26 11:47:38;;;;;;;28.63;17.35;;;16.40;77.60;;;;;;5093335;28;20040;-74
2024/01/26 11:50:08;;;;;;;25.50;16.35;;;16.40;77.50;;;;;;5093638;28;20028;-76
2024/01/26 11:52:37;;;;;;;26.95;16.10;;;16.40;77.70;;;;;;5093597;28;20032;-77
2024/01/26 11:55:08;;;;;;;31.70;15.18;;;16.50;77.30;;;;;;5093799;28;20047;-76
2024/01/26 11:57:34;;;;;;;24.15;15.85;;;16.50;77.40;;;;;;5093630;28;20040;-75
2024/01/26 11:59:59;;;;;;;31.88;15.70;;;16.50;77.40;;;;;;5075559;28;20035;-76
2024/01/26 12:02:26;;;;;;;26.10;14.63;;;16.40;77.30;;;;;;5093718;28;20036;-82
2024/01/26 12:04:52;;;;;;;26.80;14.43;;;16.50;77.50;;;;;;5085579;28;20038;-81
2024/01/26 12:07:18;;;;;;;30.90;13.75;;;16.40;77.40;;;;;;5087758;28;20036;-76
2024/01/26 12:09:44;;;;;;;26.23;15.05;;;16.40;77.40;;;;;;5072899;28;20060;-80
2024/01/26 12:12:11;;;;;;;27.75;14.27;;;16.50;77.70;;;;;;5073110;28;20111;-79
2024/01/26 12:14:37;;;;;;;22.52;13.68;;;16.40;77.50;;;;;;5078821;28;20036;-82
2024/01/26 12:17:04;;;;;;;21.92;12.48;;;16.40;77.60;;;;;;5085589;28;20517;-82
2024/01/26 12:19:29;;;;;;;23.48;15.27;;;16.40;77.50;;;;;;5075191;28;20036;-80
2024/01/26 12:21:56;;;;;;;22.38;13.88;;;16.40;77.60;;;;;;5074765;28;20043;-79
2024/01/26 12:24:23;;;;;;;23.27;12.25;;;16.40;77.40;;;;;;5097272;22;20056;-78
2024/01/26 12:26:50;;;;;;;23.80;12.45;;;16.40;77.40;;;;;;5049024;28;20079;-78